KPBF/PBF METAR and TAF weather

Enter ICAO airport designator
Station Type Date Time Source
KPBF METAR 2019/12/07 06:53 UTC NOAA

KPBF 070653Z AUTO 02013KT 10SM CLR 07/03 A3031 RMK AO2 SLP264 T00720033


Station Type Date Time Source
KPBF Decoded METAR 2019/12/07 06:53 UTC NOAA

PINE BLUFF GRIDER FIELD, AR, United States (KPBF) 34-11N 091-56W 62M
Dec 07, 2019 - 01:53 AM EST / 2019.12.07 0653 UTC
Wind: from the NNE (020 degrees) at 15 MPH (13 KT):0
Visibility: 10 mile(s):0
Sky conditions: clear
Temperature: 45.0 F (7.2 C)
Dew Point: 37.9 F (3.3 C)
Relative Humidity: 76%
Pressure (altimeter): 30.31 in. Hg (1026 hPa)
ob: KPBF 070653Z AUTO 02013KT 10SM CLR 07/03 A3031 RMK AO2 SLP264 T00720033
cycle: 7

Station Type Date Time Source
KPBF TAF 2019/12/07 07:34 UTC NOAA

TAF
AMD KPBF 070632Z 0707/0806 02006KT P6SM FEW015 SCT040
FM071200 01004KT 6SM BR OVC025
FM071500 03004KT P6SM FEW250

Example: see airport list